Monday, January 21, 2019, 5:11 PM EST
Back to Local

KGKJ, Port Meadville Airport

Location: Meadville, PA, United States Lat: 41.633
Local Time: 5:11 PM EST (22:11 GMT) Lon: -80.217
Time Zone: US/Eastern Elev: 1400 ft

Show me the last for .
Show Decoded

2019-01-21 16:53 METAR KGKJ 212153Z AUTO 29005KT 8SM -SN OVC022 M13/M16 A3045 RMK AO2 SNB08
                 SLP345 P0000 T11281161 TSNO =
2019-01-21 15:53 METAR KGKJ 212053Z AUTO 31011G16KT 10SM OVC024 M13/M17 A3045 RMK AO2
                 UPB04E08SNB08E40 SLP343 P0000 60000 T11281172 53014 TSNO =
2019-01-21 14:53 METAR KGKJ 211953Z AUTO 31010KT 10SM BKN028 BKN033 M13/M18 A3042 RMK AO2
                 UPB1857E41 SLP335 P0000 T11331183 TSNO =
2019-01-21 14:48 METAR KGKJ 211948Z AUTO 33009G17KT 10SM BKN030 M13/M18 A3042 RMK AO2 UPB1857E41
                 P0000 TSNO =
2019-01-21 14:37 METAR KGKJ 211937Z AUTO 32009G19KT 10SM UP BKN029 M13/M19 A3042 RMK AO2 UPB1857
                 P0000 T11331189 TSNO =
2019-01-21 13:53 METAR KGKJ 211853Z AUTO 31013G19KT 10SM FEW035 M13/M21 A3040 RMK AO2 UPB20E42
                 SLP328 P0000 T11281206 TSNO =
2019-01-21 12:53 METAR KGKJ 211753Z AUTO 32010G20KT 8SM CLR M13/M21 A3040 RMK AO2 SLP327 60000
                 T11331206 11133 21172 53003 TSNO =
2019-01-21 11:53 METAR KGKJ 211653Z AUTO 33011G18KT 10SM SCT027 M14/M19 A3039 RMK AO2 SNE25
                 SLP324 P0000 T11391194 TSNO =
2019-01-21 11:49 METAR KGKJ 211649Z AUTO 33011G16KT 10SM SCT027 M14/M19 A3039 RMK AO2 SNE25 P0000
                 TSNO =
2019-01-21 11:07 METAR KGKJ 211607Z AUTO 35011G17KT 3SM -SN BKN021 OVC027 M15/M19 A3039 RMK AO2
                 P0000 T11501189 TSNO =
2019-01-21 10:53 METAR KGKJ 211553Z AUTO 33013G19KT 2SM -SN BKN021 OVC025 M15/M19 A3039 RMK AO2
                 SLP325 P0000 T11501189 TSNO =
2019-01-21 10:40 METAR KGKJ 211540Z AUTO 34012G21KT 2SM -SN BKN021 OVC028 M15/M19 A3038 RMK AO2
                 P0000 T11501194 TSNO =
2019-01-21 10:03 METAR KGKJ 211503Z AUTO 35010G16KT 4SM -SN OVC025 M16/M19 A3036 RMK AO2 P0000
                 T11561194 TSNO $ =
2019-01-21 09:53 METAR KGKJ 211453Z AUTO 33011G21KT 2 1/2SM -SN OVC025 M16/M19 A3035 RMK AO2 VIS
                 1 1/4V5 SLP311 P0000 60000 T11561194 53024 TSNO $ =
2019-01-21 09:40 METAR KGKJ 211440Z AUTO 33009G20KT 3SM -SN OVC027 M16/M19 A3034 RMK AO2 P0000
                 T11561194 TSNO $ =
2019-01-21 09:30 METAR KGKJ 211430Z AUTO 35014G21KT 1 1/4SM -SN OVC027 M16/M20 A3033 RMK AO2 VIS
                 1V2 1/2 P0000 T11611200 TSNO $ =
2019-01-21 08:53 METAR KGKJ 211353Z AUTO 33009G20KT 2 1/2SM -SN SCT017 BKN026 OVC031 M17/M19
                 A3032 RMK AO2 SNB35 SLP301 P0000 T11671194 TSNO $ =
2019-01-21 08:22 METAR KGKJ 211322Z AUTO 33008KT 3SM HZ SCT021 BKN028 OVC033 M17/M19 A3029 RMK
                 AO2 T11671194 PWINO FZRANO TSNO $ =
2019-01-21 08:20 METAR KGKJ 211320Z AUTO 32012G19KT 2 1/2SM HZ SCT021 BKN028 OVC033 M17/M19 A3029
                 RMK AO2 T11671194 PWINO FZRANO TSNO $ =
2019-01-21 08:06 METAR KGKJ 211306Z AUTO 33011G20KT 1 3/4SM HZ BKN019 OVC032 M17/M19 A3029 RMK
                 AO2 T11671194 PWINO FZRANO TSNO $ =
2019-01-21 07:53 METAR KGKJ 211253Z AUTO 33011G17KT 2SM BR SCT019 OVC032 M17/M19 A3028 RMK AO2
                 SLP287 T11671189 PWINO FZRANO TSNO $ =
2019-01-21 07:51 METAR KGKJ 211251Z AUTO 33009G18KT 2 1/2SM BR SCT019 OVC032 M17/M19 A3027 RMK
                 AO2 PWINO FZRANO TSNO $ =
2019-01-21 07:42 METAR KGKJ 211242Z AUTO 33012G18KT 2 1/2SM BR BKN017 OVC032 M17/M19 A3027 RMK
                 AO2 T11671189 PWINO FZRANO TSNO $ =
2019-01-21 07:12 METAR KGKJ 211212Z AUTO 33007KT 1 1/2SM BR BKN015 OVC032 M17/M19 A3025 RMK AO2
                 T11721194 PWINO FZRANO TSNO $ =
2019-01-21 06:53 METAR KGKJ 211153Z AUTO 33007KT 2 1/2SM BR BKN017 OVC032 M17/M19 A3024 RMK AO2
                 SLP276 60000 T11721194 11167 21178 53026 PWINO FZRANO TSNO $ =
2019-01-21 06:37 METAR KGKJ 211137Z AUTO 32007KT 2 1/2SM BR OVC017 M18/M20 A3023 RMK AO2
                 T11781200 PWINO FZRANO TSNO $ =
2019-01-21 05:53 METAR KGKJ 211053Z AUTO 34009G17KT 7SM BKN018 OVC025 M17/M20 A3021 RMK AO2
                 SLP264 T11721200 PWINO FZRANO TSNO $ =
2019-01-21 05:38 METAR KGKJ 211038Z AUTO 32008KT 3SM BR BKN018 OVC028 M17/M19 A3020 RMK AO2
                 T11721194 PWINO FZRANO TSNO $ =
2019-01-21 05:19 METAR KGKJ 211019Z AUTO 32008G17KT 2SM BR BKN016 OVC029 M17/M19 A3019 RMK AO2
                 T11721194 PWINO FZRANO TSNO $ =
2019-01-21 05:08 METAR KGKJ 211008Z AUTO 32011G19KT 1 1/2SM BR BKN017 OVC028 M17/M19 A3019 RMK
                 AO2 T11721194 PWINO FZRANO TSNO $ =
2019-01-21 04:53 METAR KGKJ 210953Z AUTO 32011G21KT 2SM BR BKN016 BKN026 OVC031 M17/M19 A3018 RMK
                 AO2 SLP254 T11721194 PWINO FZRANO TSNO $ =
2019-01-21 04:51 METAR KGKJ 210951Z AUTO 32008G21KT 2SM BR BKN016 BKN026 OVC031 M17/M19 A3018 RMK
                 AO2 PWINO FZRANO TSNO $ =
2019-01-21 03:53 METAR KGKJ 210853Z AUTO 32010G18KT 1 1/2SM BR OVC013 M17/M19 A3016 RMK AO2
                 SLP246 60000 T11671189 51018 PWINO FZRANO TSNO $ =
2019-01-21 02:53 METAR KGKJ 210753Z AUTO 33012G17KT 1SM BR VV010 M17/M18 A3015 RMK AO2 SLP243
                 T11671183 PWINO FZRANO TSNO $ =
2019-01-21 01:53 METAR KGKJ 210653Z AUTO 32008KT 1 1/2SM BR OVC013 M17/M19 A3012 RMK AO2 SNEMM
                 SLP231 P0000 T11671189 PWINO FZRANO TSNO $ =
2019-01-21 00:53 METAR KGKJ 210553Z AUTO 32006KT 1 1/4SM -SN BR OVC013 M17/M18 A3010 RMK AO2
                 SNEMMB52 SLP226 P0000 60000 T11671183 11150 21167 51006 TSNO $ =
2019-01-21 00:49 METAR KGKJ 210549Z AUTO 31006KT 1 1/4SM BR OVC013 M17/M18 A3010 RMK AO2 SNEMM
                 P0000 PWINO FZRANO TSNO $ =
2019-01-21 00:35 METAR KGKJ 210535Z AUTO 32009KT 1 1/2SM -SN BR OVC015 M16/M18 A3010 RMK AO2
                 P0000 T11611183 TSNO $ =
2019-01-20 23:53 METAR KGKJ 210453Z AUTO 32007KT 1 1/4SM -SN BR OVC012 M17/M18 A3009 RMK AO2
                 SLP222 P0000 T11671183 410781167 TSNO =
2019-01-20 22:53 METAR KGKJ 210353Z AUTO 35011KT 1 1/4SM -SN BR OVC014 M16/M18 A3008 RMK AO2
                 SLP219 P0000 T11611183 TSNO =
2019-01-20 22:39 METAR KGKJ 210339Z AUTO 33009KT 1 1/2SM -SN BR OVC015 M16/M18 A3008 RMK AO2
                 P0000 T11611183 TSNO =
2019-01-20 22:22 METAR KGKJ 210322Z AUTO 34011G22KT 1 1/2SM -SN OVC014 M16/M18 A3008 RMK AO2
                 P0000 T11561183 TSNO =
2019-01-20 21:53 METAR KGKJ 210253Z AUTO 33010G17KT 1 3/4SM -SN BKN019 OVC033 M16/M18 A3007 RMK
                 AO2 SNE02B30 SLP215 P0000 60000 T11561183 51018 TSNO =
2019-01-20 21:51 METAR KGKJ 210251Z AUTO 34010G17KT 1 3/4SM -SN BKN019 OVC033 M16/M19 A3007 RMK
                 AO2 SNE02B30 P0000 TSNO =
2019-01-20 20:53 METAR KGKJ 210153Z AUTO 34011G21KT 4SM -SN BKN020 OVC027 M16/M20 A3006 RMK AO2
                 SLP209 P0000 T11561200 TSNO =
2019-01-20 19:53 METAR KGKJ 210053Z AUTO 33012G21KT 8SM -SN BKN025 OVC033 M15/M19 A3005 RMK AO2
                 PK WND 31028/0000 UPB01E53SNB39E51B53 SLP205 P0000 T11501194 TSNO =
2019-01-20 19:32 METAR KGKJ 210032Z AUTO 32010G24KT 10SM UP BKN025 BKN032 M15/M20 A3004 RMK AO2
                 PK WND 31028/0000 UPB01 P0000 T11501200 TSNO =
2019-01-20 18:53 METAR KGKJ 202353Z AUTO 32013G24KT 9SM CLR M15/M21 A3002 RMK AO2 UPE2257B44E50
                 SLP196 P0000 60000 T11501211 11117 21150 53027 TSNO =
2019-01-20 17:53 METAR KGKJ 202253Z AUTO 32013G21KT 10SM UP CLR M15/M21 A2999 RMK AO2 UPB02E19B46
                 SLP182 P0000 T11501211 TSNO =

Support USWX by starting your Amazon purchase here.